sensor_id;sensor_type;location;lat;lon;timestamp;temperature;humidity
12893;DHT22;6514;48.606;9.222;2024-03-17T00:02:06;5.80;99.90
12893;DHT22;6514;48.606;9.222;2024-03-17T00:04:32;5.80;99.90
12893;DHT22;6514;48.606;9.222;2024-03-17T00:07:01;5.90;99.90
12893;DHT22;6514;48.606;9.222;2024-03-17T00:09:27;5.90;99.90
12893;DHT22;6514;48.606;9.222;2024-03-17T00:11:54;6.00;99.90
12893;DHT22;6514;48.606;9.222;2024-03-17T00:14:21;5.90;99.90
12893;DHT22;6514;48.606;9.222;2024-03-17T00:16:48;5.90;99.90
12893;DHT22;6514;48.606;9.222;2024-03-17T00:19:14;5.90;99.90
12893;DHT22;6514;48.606;9.222;2024-03-17T00:21:42;5.80;99.90
12893;DHT22;6514;48.606;9.222;2024-03-17T00:24:09;5.70;99.90
12893;DHT22;6514;48.606;9.222;2024-03-17T00:26:39;5.70;99.90
12893;DHT22;6514;48.606;9.222;2024-03-17T00:29:04;5.70;99.90
12893;DHT22;6514;48.606;9.222;2024-03-17T00:31:32;5.70;99.90
12893;DHT22;6514;48.606;9.222;2024-03-17T00:33:57;5.80;99.90
12893;DHT22;6514;48.606;9.222;2024-03-17T00:36:27;5.80;99.90
12893;DHT22;6514;48.606;9.222;2024-03-17T00:38:53;5.80;99.90
12893;DHT22;6514;48.606;9.222;2024-03-17T00:41:22;5.90;99.90
12893;DHT22;6514;48.606;9.222;2024-03-17T00:43:48;5.90;99.90
12893;DHT22;6514;48.606;9.222;2024-03-17T00:46:15;6.00;99.90
12893;DHT22;6514;48.606;9.222;2024-03-17T00:48:42;6.00;99.90
12893;DHT22;6514;48.606;9.222;2024-03-17T00:51:10;6.00;99.90
12893;DHT22;6514;48.606;9.222;2024-03-17T00:53:36;6.00;99.90
12893;DHT22;6514;48.606;9.222;2024-03-17T00:56:03;6.00;99.90
12893;DHT22;6514;48.606;9.222;2024-03-17T00:58:30;6.00;99.90
12893;DHT22;6514;48.606;9.222;2024-03-17T01:00:59;5.90;99.90
12893;DHT22;6514;48.606;9.222;2024-03-17T01:03:26;6.00;99.90
12893;DHT22;6514;48.606;9.222;2024-03-17T01:05:53;5.90;99.90
12893;DHT22;6514;48.606;9.222;2024-03-17T01:08:19;5.80;99.90
12893;DHT22;6514;48.606;9.222;2024-03-17T01:10:47;5.80;99.90
12893;DHT22;6514;48.606;9.222;2024-03-17T01:13:15;5.80;99.90
12893;DHT22;6514;48.606;9.222;2024-03-17T01:15:44;5.80;99.90
12893;DHT22;6514;48.606;9.222;2024-03-17T01:18:10;5.90;99.90
12893;DHT22;6514;48.606;9.222;2024-03-17T01:20:38;6.00;99.90
12893;DHT22;6514;48.606;9.222;2024-03-17T01:23:05;6.10;99.90
12893;DHT22;6514;48.606;9.222;2024-03-17T01:25:33;6.20;99.90
12893;DHT22;6514;48.606;9.222;2024-03-17T01:28:01;6.30;99.90
12893;DHT22;6514;48.606;9.222;2024-03-17T01:30:28;6.30;99.90
12893;DHT22;6514;48.606;9.222;2024-03-17T01:32:56;6.40;99.90
12893;DHT22;6514;48.606;9.222;2024-03-17T01:35:23;6.40;99.90
12893;DHT22;6514;48.606;9.222;2024-03-17T01:37:48;6.40;99.90
12893;DHT22;6514;48.606;9.222;2024-03-17T01:40:15;6.50;99.90
12893;DHT22;6514;48.606;9.222;2024-03-17T01:42:41;6.60;99.90
12893;DHT22;6514;48.606;9.222;2024-03-17T01:45:24;6.60;99.90
12893;DHT22;6514;48.606;9.222;2024-03-17T01:47:52;6.60;99.90
12893;DHT22;6514;48.606;9.222;2024-03-17T01:50:22;6.60;99.90
12893;DHT22;6514;48.606;9.222;2024-03-17T01:52:52;6.60;99.90
12893;DHT22;6514;48.606;9.222;2024-03-17T01:55:20;6.60;99.90
12893;DHT22;6514;48.606;9.222;2024-03-17T01:57:47;6.60;99.90
12893;DHT22;6514;48.606;9.222;2024-03-17T02:00:15;6.60;99.90
12893;DHT22;6514;48.606;9.222;2024-03-17T02:02:41;6.60;99.90
12893;DHT22;6514;48.606;9.222;2024-03-17T02:05:08;6.60;99.90
12893;DHT22;6514;48.606;9.222;2024-03-17T02:07:35;6.60;99.90
12893;DHT22;6514;48.606;9.222;2024-03-17T02:10:03;6.60;99.90
12893;DHT22;6514;48.606;9.222;2024-03-17T02:12:29;6.60;99.90
12893;DHT22;6514;48.606;9.222;2024-03-17T02:14:57;6.60;99.90
12893;DHT22;6514;48.606;9.222;2024-03-17T02:17:23;6.60;99.90
12893;DHT22;6514;48.606;9.222;2024-03-17T02:19:51;6.60;99.90
12893;DHT22;6514;48.606;9.222;2024-03-17T02:22:18;6.60;99.90
12893;DHT22;6514;48.606;9.222;2024-03-17T02:24:45;6.60;99.90
12893;DHT22;6514;48.606;9.222;2024-03-17T02:27:11;6.60;99.90
12893;DHT22;6514;48.606;9.222;2024-03-17T02:29:39;6.60;99.90
12893;DHT22;6514;48.606;9.222;2024-03-17T02:32:05;6.60;99.90
12893;DHT22;6514;48.606;9.222;2024-03-17T02:34:33;6.60;99.90
12893;DHT22;6514;48.606;9.222;2024-03-17T02:36:59;6.60;99.90
12893;DHT22;6514;48.606;9.222;2024-03-17T02:39:27;6.60;99.90
12893;DHT22;6514;48.606;9.222;2024-03-17T02:41:59;6.60;99.90
12893;DHT22;6514;48.606;9.222;2024-03-17T02:44:26;6.60;99.90
12893;DHT22;6514;48.606;9.222;2024-03-17T02:46:52;6.60;99.90
12893;DHT22;6514;48.606;9.222;2024-03-17T02:49:19;6.70;99.90
12893;DHT22;6514;48.606;9.222;2024-03-17T02:51:46;6.70;99.90
12893;DHT22;6514;48.606;9.222;2024-03-17T02:54:13;6.70;99.90
12893;DHT22;6514;48.606;9.222;2024-03-17T02:56:41;6.70;99.90
12893;DHT22;6514;48.606;9.222;2024-03-17T02:59:08;6.70;99.90
12893;DHT22;6514;48.606;9.222;2024-03-17T03:01:35;6.70;99.90
12893;DHT22;6514;48.606;9.222;2024-03-17T03:04:02;6.70;99.90
12893;DHT22;6514;48.606;9.222;2024-03-17T03:06:28;6.80;99.90
12893;DHT22;6514;48.606;9.222;2024-03-17T03:08:55;6.70;99.90
12893;DHT22;6514;48.606;9.222;2024-03-17T03:11:22;6.70;99.90
12893;DHT22;6514;48.606;9.222;2024-03-17T03:13:50;6.70;99.90
12893;DHT22;6514;48.606;9.222;2024-03-17T03:16:17;6.70;99.90
12893;DHT22;6514;48.606;9.222;2024-03-17T03:18:44;6.70;99.90
12893;DHT22;6514;48.606;9.222;2024-03-17T03:21:11;6.70;99.90
12893;DHT22;6514;48.606;9.222;2024-03-17T03:23:39;6.70;99.90
12893;DHT22;6514;48.606;9.222;2024-03-17T03:26:06;6.70;99.90
12893;DHT22;6514;48.606;9.222;2024-03-17T03:28:35;6.60;99.90
12893;DHT22;6514;48.606;9.222;2024-03-17T03:31:04;6.60;99.90
12893;DHT22;6514;48.606;9.222;2024-03-17T03:33:32;6.60;99.90
12893;DHT22;6514;48.606;9.222;2024-03-17T03:35:59;6.50;99.90
12893;DHT22;6514;48.606;9.222;2024-03-17T03:38:33;6.50;99.90
12893;DHT22;6514;48.606;9.222;2024-03-17T03:41:06;6.40;99.90
12893;DHT22;6514;48.606;9.222;2024-03-17T03:43:33;6.40;99.90
12893;DHT22;6514;48.606;9.222;2024-03-17T03:45:59;6.40;99.90
12893;DHT22;6514;48.606;9.222;2024-03-17T03:48:28;6.40;99.90
12893;DHT22;6514;48.606;9.222;2024-03-17T03:50:54;6.40;99.90
12893;DHT22;6514;48.606;9.222;2024-03-17T03:53:21;6.40;99.90
12893;DHT22;6514;48.606;9.222;2024-03-17T03:55:48;6.40;99.90
12893;DHT22;6514;48.606;9.222;2024-03-17T03:58:15;5.50;99.90
12893;DHT22;6514;48.606;9.222;2024-03-17T04:00:42;6.40;99.90
12893;DHT22;6514;48.606;9.222;2024-03-17T04:03:09;6.50;99.90
12893;DHT22;6514;48.606;9.222;2024-03-17T04:05:37;6.50;99.90
12893;DHT22;6514;48.606;9.222;2024-03-17T04:08:05;6.60;99.90
12893;DHT22;6514;48.606;9.222;2024-03-17T04:10:31;6.60;99.90
12893;DHT22;6514;48.606;9.222;2024-03-17T04:12:58;6.60;99.90
12893;DHT22;6514;48.606;9.222;2024-03-17T04:15:25;6.60;99.90
12893;DHT22;6514;48.606;9.222;2024-03-17T04:17:52;6.60;99.90
12893;DHT22;6514;48.606;9.222;2024-03-17T04:20:19;6.70;99.90
12893;DHT22;6514;48.606;9.222;2024-03-17T04:22:47;6.70;99.90
12893;DHT22;6514;48.606;9.222;2024-03-17T04:25:14;6.70;99.90
12893;DHT22;6514;48.606;9.222;2024-03-17T04:27:41;6.70;99.90
12893;DHT22;6514;48.606;9.222;2024-03-17T04:30:09;6.70;99.90
12893;DHT22;6514;48.606;9.222;2024-03-17T04:32:37;6.70;99.90
12893;DHT22;6514;48.606;9.222;2024-03-17T04:35:04;6.70;99.90
12893;DHT22;6514;48.606;9.222;2024-03-17T04:37:32;6.70;99.90
12893;DHT22;6514;48.606;9.222;2024-03-17T04:40:07;6.70;99.90
12893;DHT22;6514;48.606;9.222;2024-03-17T04:42:36;6.70;99.90
12893;DHT22;6514;48.606;9.222;2024-03-17T04:45:10;6.70;99.90
12893;DHT22;6514;48.606;9.222;2024-03-17T04:47:37;6.70;99.90
12893;DHT22;6514;48.606;9.222;2024-03-17T04:50:05;6.70;99.90
12893;DHT22;6514;48.606;9.222;2024-03-17T04:52:32;6.70;99.90
12893;DHT22;6514;48.606;9.222;2024-03-17T04:54:59;6.70;99.90
12893;DHT22;6514;48.606;9.222;2024-03-17T04:57:27;6.70;99.90
12893;DHT22;6514;48.606;9.222;2024-03-17T04:59:54;6.70;99.90
12893;DHT22;6514;48.606;9.222;2024-03-17T05:02:20;6.70;99.90
12893;DHT22;6514;48.606;9.222;2024-03-17T05:04:48;6.70;99.90
12893;DHT22;6514;48.606;9.222;2024-03-17T05:07:15;6.80;99.90
12893;DHT22;6514;48.606;9.222;2024-03-17T05:09:42;6.80;99.90
12893;DHT22;6514;48.606;9.222;2024-03-17T05:12:09;6.80;99.90
12893;DHT22;6514;48.606;9.222;2024-03-17T05:14:37;6.80;99.90
12893;DHT22;6514;48.606;9.222;2024-03-17T05:17:04;6.80;99.90
12893;DHT22;6514;48.606;9.222;2024-03-17T05:19:31;6.70;99.90
12893;DHT22;6514;48.606;9.222;2024-03-17T05:21:58;6.70;99.90
12893;DHT22;6514;48.606;9.222;2024-03-17T05:24:25;6.70;99.90
12893;DHT22;6514;48.606;9.222;2024-03-17T05:26:52;6.70;99.90
12893;DHT22;6514;48.606;9.222;2024-03-17T05:29:18;6.70;99.90
12893;DHT22;6514;48.606;9.222;2024-03-17T05:31:47;6.70;99.90
12893;DHT22;6514;48.606;9.222;2024-03-17T05:34:13;6.70;99.90
12893;DHT22;6514;48.606;9.222;2024-03-17T05:36:40;6.70;99.90
12893;DHT22;6514;48.606;9.222;2024-03-17T05:39:07;6.60;99.90
12893;DHT22;6514;48.606;9.222;2024-03-17T05:41:34;6.60;99.90
12893;DHT22;6514;48.606;9.222;2024-03-17T05:44:01;6.60;99.90
12893;DHT22;6514;48.606;9.222;2024-03-17T05:46:29;6.70;99.90
12893;DHT22;6514;48.606;9.222;2024-03-17T05:48:58;6.70;99.90
12893;DHT22;6514;48.606;9.222;2024-03-17T05:51:24;6.70;99.90
12893;DHT22;6514;48.606;9.222;2024-03-17T05:53:53;6.70;99.90
12893;DHT22;6514;48.606;9.222;2024-03-17T05:56:21;6.70;99.90
12893;DHT22;6514;48.606;9.222;2024-03-17T05:58:48;6.80;99.90
12893;DHT22;6514;48.606;9.222;2024-03-17T06:01:15;6.80;99.90
12893;DHT22;6514;48.606;9.222;2024-03-17T06:03:42;6.80;99.90
12893;DHT22;6514;48.606;9.222;2024-03-17T06:06:10;6.80;99.90
12893;DHT22;6514;48.606;9.222;2024-03-17T06:08:37;6.80;99.90
12893;DHT22;6514;48.606;9.222;2024-03-17T06:11:04;6.80;99.90
12893;DHT22;6514;48.606;9.222;2024-03-17T06:13:31;6.70;99.90
12893;DHT22;6514;48.606;9.222;2024-03-17T06:15:58;6.70;99.90
12893;DHT22;6514;48.606;9.222;2024-03-17T06:18:27;6.70;99.90
12893;DHT22;6514;48.606;9.222;2024-03-17T06:20:54;6.80;99.90
12893;DHT22;6514;48.606;9.222;2024-03-17T06:23:25;6.80;99.90
12893;DHT22;6514;48.606;9.222;2024-03-17T06:25:53;6.90;99.90
12893;DHT22;6514;48.606;9.222;2024-03-17T06:28:21;7.00;99.90
12893;DHT22;6514;48.606;9.222;2024-03-17T06:30:55;7.00;99.90
12893;DHT22;6514;48.606;9.222;2024-03-17T06:33:22;7.10;99.90
12893;DHT22;6514;48.606;9.222;2024-03-17T06:35:49;7.20;99.90
12893;DHT22;6514;48.606;9.222;2024-03-17T06:38:16;7.20;99.90
12893;DHT22;6514;48.606;9.222;2024-03-17T06:40:49;7.30;99.90
12893;DHT22;6514;48.606;9.222;2024-03-17T06:43:16;7.40;99.90
12893;DHT22;6514;48.606;9.222;2024-03-17T06:45:43;7.50;99.90
12893;DHT22;6514;48.606;9.222;2024-03-17T06:48:10;7.60;99.90
12893;DHT22;6514;48.606;9.222;2024-03-17T06:50:38;7.80;99.90
12893;DHT22;6514;48.606;9.222;2024-03-17T06:53:07;7.90;99.90
12893;DHT22;6514;48.606;9.222;2024-03-17T06:55:35;8.00;99.90
12893;DHT22;6514;48.606;9.222;2024-03-17T06:58:03;8.10;99.90
12893;DHT22;6514;48.606;9.222;2024-03-17T07:00:30;8.10;99.90
12893;DHT22;6514;48.606;9.222;2024-03-17T07:02:57;8.10;99.90
12893;DHT22;6514;48.606;9.222;2024-03-17T07:05:25;8.20;99.90
12893;DHT22;6514;48.606;9.222;2024-03-17T07:07:51;8.30;99.90
12893;DHT22;6514;48.606;9.222;2024-03-17T07:10:18;8.30;99.90
12893;DHT22;6514;48.606;9.222;2024-03-17T07:12:45;8.40;99.90
12893;DHT22;6514;48.606;9.222;2024-03-17T07:15:13;8.40;99.90
12893;DHT22;6514;48.606;9.222;2024-03-17T07:17:40;8.50;99.90
12893;DHT22;6514;48.606;9.222;2024-03-17T07:20:07;8.60;99.90
12893;DHT22;6514;48.606;9.222;2024-03-17T07:22:38;8.70;99.90
12893;DHT22;6514;48.606;9.222;2024-03-17T07:25:05;8.70;99.90
12893;DHT22;6514;48.606;9.222;2024-03-17T07:27:32;8.90;99.90
12893;DHT22;6514;48.606;9.222;2024-03-17T07:29:59;9.00;99.90
12893;DHT22;6514;48.606;9.222;2024-03-17T07:32:27;9.10;99.90
12893;DHT22;6514;48.606;9.222;2024-03-17T07:34:54;9.20;99.90
12893;DHT22;6514;48.606;9.222;2024-03-17T07:37:21;9.20;99.90
12893;DHT22;6514;48.606;9.222;2024-03-17T07:39:48;9.30;99.90
12893;DHT22;6514;48.606;9.222;2024-03-17T07:42:15;9.40;99.90
12893;DHT22;6514;48.606;9.222;2024-03-17T07:44:43;9.50;99.90
12893;DHT22;6514;48.606;9.222;2024-03-17T07:47:10;9.70;99.90
12893;DHT22;6514;48.606;9.222;2024-03-17T07:49:38;9.90;99.90
12893;DHT22;6514;48.606;9.222;2024-03-17T07:52:05;10.10;99.90
12893;DHT22;6514;48.606;9.222;2024-03-17T07:54:32;10.30;99.90
12893;DHT22;6514;48.606;9.222;2024-03-17T07:57:00;10.40;99.90
12893;DHT22;6514;48.606;9.222;2024-03-17T07:59:27;10.50;99.90
12893;DHT22;6514;48.606;9.222;2024-03-17T08:01:55;10.50;99.90
12893;DHT22;6514;48.606;9.222;2024-03-17T08:04:22;10.50;99.90
12893;DHT22;6514;48.606;9.222;2024-03-17T08:06:50;10.70;99.90
12893;DHT22;6514;48.606;9.222;2024-03-17T08:09:17;10.80;99.90
12893;DHT22;6514;48.606;9.222;2024-03-17T08:11:45;11.00;99.90
12893;DHT22;6514;48.606;9.222;2024-03-17T08:14:12;11.00;99.90
12893;DHT22;6514;48.606;9.222;2024-03-17T08:16:40;11.20;99.90
12893;DHT22;6514;48.606;9.222;2024-03-17T08:19:07;11.40;99.90
12893;DHT22;6514;48.606;9.222;2024-03-17T08:21:34;11.60;99.90
12893;DHT22;6514;48.606;9.222;2024-03-17T08:24:02;11.70;99.90
12893;DHT22;6514;48.606;9.222;2024-03-17T08:26:29;11.80;99.90
12893;DHT22;6514;48.606;9.222;2024-03-17T08:28:56;11.90;99.90
12893;DHT22;6514;48.606;9.222;2024-03-17T08:31:23;12.10;99.90
12893;DHT22;6514;48.606;9.222;2024-03-17T08:33:50;12.20;99.90
12893;DHT22;6514;48.606;9.222;2024-03-17T08:36:18;12.40;99.90
12893;DHT22;6514;48.606;9.222;2024-03-17T08:38:45;12.60;99.90
12893;DHT22;6514;48.606;9.222;2024-03-17T08:41:15;12.80;99.90
12893;DHT22;6514;48.606;9.222;2024-03-17T08:43:42;12.90;99.90
12893;DHT22;6514;48.606;9.222;2024-03-17T08:46:10;12.90;99.90
12893;DHT22;6514;48.606;9.222;2024-03-17T08:48:39;13.10;99.90
12893;DHT22;6514;48.606;9.222;2024-03-17T08:51:07;13.10;99.90
12893;DHT22;6514;48.606;9.222;2024-03-17T08:53:34;13.20;99.90
12893;DHT22;6514;48.606;9.222;2024-03-17T08:56:03;13.30;99.90
12893;DHT22;6514;48.606;9.222;2024-03-17T08:58:33;13.50;99.90
12893;DHT22;6514;48.606;9.222;2024-03-17T09:01:03;13.70;99.90
12893;DHT22;6514;48.606;9.222;2024-03-17T09:03:32;14.00;99.90
12893;DHT22;6514;48.606;9.222;2024-03-17T09:05:59;14.50;99.90
12893;DHT22;6514;48.606;9.222;2024-03-17T09:08:25;14.90;99.90
12893;DHT22;6514;48.606;9.222;2024-03-17T09:10:54;15.20;99.90
12893;DHT22;6514;48.606;9.222;2024-03-17T09:13:22;15.20;99.90
12893;DHT22;6514;48.606;9.222;2024-03-17T09:15:52;15.30;99.90
12893;DHT22;6514;48.606;9.222;2024-03-17T09:18:19;15.40;99.90
12893;DHT22;6514;48.606;9.222;2024-03-17T09:20:54;15.50;99.90
12893;DHT22;6514;48.606;9.222;2024-03-17T09:23:21;15.40;99.90
12893;DHT22;6514;48.606;9.222;2024-03-17T09:25:55;15.40;99.90
12893;DHT22;6514;48.606;9.222;2024-03-17T09:28:22;15.60;99.90
12893;DHT22;6514;48.606;9.222;2024-03-17T09:30:49;15.40;99.90
12893;DHT22;6514;48.606;9.222;2024-03-17T09:33:19;15.20;99.90
12893;DHT22;6514;48.606;9.222;2024-03-17T09:35:53;15.30;99.90
12893;DHT22;6514;48.606;9.222;2024-03-17T09:38:19;15.30;99.90
12893;DHT22;6514;48.606;9.222;2024-03-17T09:40:47;15.40;99.90
12893;DHT22;6514;48.606;9.222;2024-03-17T09:43:15;15.50;99.90
12893;DHT22;6514;48.606;9.222;2024-03-17T09:45:42;15.30;99.90
12893;DHT22;6514;48.606;9.222;2024-03-17T09:48:13;15.30;99.90
12893;DHT22;6514;48.606;9.222;2024-03-17T09:50:42;15.40;99.90
12893;DHT22;6514;48.606;9.222;2024-03-17T09:53:15;15.40;99.90
12893;DHT22;6514;48.606;9.222;2024-03-17T09:55:42;15.40;99.90
12893;DHT22;6514;48.606;9.222;2024-03-17T09:58:15;15.40;99.90
12893;DHT22;6514;48.606;9.222;2024-03-17T10:00:43;15.40;99.90
12893;DHT22;6514;48.606;9.222;2024-03-17T10:03:10;15.40;99.90
12893;DHT22;6514;48.606;9.222;2024-03-17T10:05:38;15.40;99.90
12893;DHT22;6514;48.606;9.222;2024-03-17T10:08:06;15.40;99.90
12893;DHT22;6514;48.606;9.222;2024-03-17T10:10:52;15.30;99.90
12893;DHT22;6514;48.606;9.222;2024-03-17T10:13:19;15.40;99.90
12893;DHT22;6514;48.606;9.222;2024-03-17T10:15:48;15.50;99.90
12893;DHT22;6514;48.606;9.222;2024-03-17T10:18:21;15.50;99.90
12893;DHT22;6514;48.606;9.222;2024-03-17T10:20:48;15.90;99.90
12893;DHT22;6514;48.606;9.222;2024-03-17T10:23:19;16.30;99.90
12893;DHT22;6514;48.606;9.222;2024-03-17T10:25:46;16.60;99.90
12893;DHT22;6514;48.606;9.222;2024-03-17T10:28:16;17.10;99.90
12893;DHT22;6514;48.606;9.222;2024-03-17T10:30:57;17.50;99.90
12893;DHT22;6514;48.606;9.222;2024-03-17T10:33:24;17.80;99.90
12893;DHT22;6514;48.606;9.222;2024-03-17T10:35:58;18.00;99.90
12893;DHT22;6514;48.606;9.222;2024-03-17T10:38:27;18.20;99.90
12893;DHT22;6514;48.606;9.222;2024-03-17T10:40:54;18.30;99.90
12893;DHT22;6514;48.606;9.222;2024-03-17T10:43:21;18.40;99.90
12893;DHT22;6514;48.606;9.222;2024-03-17T10:45:52;18.30;99.90
12893;DHT22;6514;48.606;9.222;2024-03-17T10:48:20;18.40;99.90
12893;DHT22;6514;48.606;9.222;2024-03-17T10:50:48;18.40;99.90
12893;DHT22;6514;48.606;9.222;2024-03-17T10:53:20;18.50;99.90
12893;DHT22;6514;48.606;9.222;2024-03-17T10:56:02;18.60;99.90
12893;DHT22;6514;48.606;9.222;2024-03-17T10:58:33;18.70;99.90
12893;DHT22;6514;48.606;9.222;2024-03-17T11:01:02;18.50;99.90
12893;DHT22;6514;48.606;9.222;2024-03-17T11:03:31;18.60;99.90
12893;DHT22;6514;48.606;9.222;2024-03-17T11:05:59;18.80;99.90
12893;DHT22;6514;48.606;9.222;2024-03-17T11:08:30;18.70;99.90
12893;DHT22;6514;48.606;9.222;2024-03-17T11:10:59;18.90;99.90
12893;DHT22;6514;48.606;9.222;2024-03-17T11:13:27;18.80;99.90
12893;DHT22;6514;48.606;9.222;2024-03-17T11:15:56;18.80;99.90
12893;DHT22;6514;48.606;9.222;2024-03-17T11:18:39;18.60;99.90
12893;DHT22;6514;48.606;9.222;2024-03-17T11:21:18;18.50;99.90
12893;DHT22;6514;48.606;9.222;2024-03-17T11:23:56;18.20;99.90
12893;DHT22;6514;48.606;9.222;2024-03-17T11:26:29;18.20;99.90
12893;DHT22;6514;48.606;9.222;2024-03-17T11:28:56;17.90;99.90
12893;DHT22;6514;48.606;9.222;2024-03-17T11:31:34;17.90;99.90
12893;DHT22;6514;48.606;9.222;2024-03-17T11:34:01;17.60;99.90
12893;DHT22;6514;48.606;9.222;2024-03-17T11:36:38;17.40;99.90
12893;DHT22;6514;48.606;9.222;2024-03-17T11:39:05;17.20;99.90
12893;DHT22;6514;48.606;9.222;2024-03-17T11:41:39;17.20;99.90
12893;DHT22;6514;48.606;9.222;2024-03-17T11:44:16;16.90;99.90
12893;DHT22;6514;48.606;9.222;2024-03-17T11:46:44;16.80;99.90
12893;DHT22;6514;48.606;9.222;2024-03-17T11:49:18;16.80;99.90
12893;DHT22;6514;48.606;9.222;2024-03-17T11:51:46;16.90;99.90
12893;DHT22;6514;48.606;9.222;2024-03-17T11:54:14;16.90;99.90
12893;DHT22;6514;48.606;9.222;2024-03-17T11:56:47;17.10;99.90
12893;DHT22;6514;48.606;9.222;2024-03-17T11:59:13;17.00;99.90
12893;DHT22;6514;48.606;9.222;2024-03-17T12:01:43;17.10;99.90
12893;DHT22;6514;48.606;9.222;2024-03-17T12:04:10;17.30;99.90
12893;DHT22;6514;48.606;9.222;2024-03-17T12:06:37;17.40;99.90
12893;DHT22;6514;48.606;9.222;2024-03-17T12:09:11;17.50;99.90
12893;DHT22;6514;48.606;9.222;2024-03-17T12:11:47;17.60;99.90
12893;DHT22;6514;48.606;9.222;2024-03-17T12:14:18;17.60;99.90
12893;DHT22;6514;48.606;9.222;2024-03-17T12:16:52;17.50;99.90
12893;DHT22;6514;48.606;9.222;2024-03-17T12:19:19;17.60;99.90
12893;DHT22;6514;48.606;9.222;2024-03-17T12:21:48;17.70;99.90
12893;DHT22;6514;48.606;9.222;2024-03-17T12:24:16;17.60;99.90
12893;DHT22;6514;48.606;9.222;2024-03-17T12:26:44;17.60;99.90
12893;DHT22;6514;48.606;9.222;2024-03-17T12:29:28;17.30;99.90
12893;DHT22;6514;48.606;9.222;2024-03-17T12:31:59;17.00;99.90
12893;DHT22;6514;48.606;9.222;2024-03-17T12:34:28;17.00;99.90
12893;DHT22;6514;48.606;9.222;2024-03-17T12:36:57;17.10;99.90
12893;DHT22;6514;48.606;9.222;2024-03-17T12:39:25;17.10;99.90
12893;DHT22;6514;48.606;9.222;2024-03-17T12:42:03;17.10;99.90
12893;DHT22;6514;48.606;9.222;2024-03-17T12:44:32;16.90;99.90
12893;DHT22;6514;48.606;9.222;2024-03-17T12:47:00;16.90;99.90
12893;DHT22;6514;48.606;9.222;2024-03-17T12:49:26;16.70;99.90
12893;DHT22;6514;48.606;9.222;2024-03-17T12:51:53;16.60;99.90
12893;DHT22;6514;48.606;9.222;2024-03-17T12:54:21;16.50;99.90
12893;DHT22;6514;48.606;9.222;2024-03-17T12:56:50;16.50;99.90
12893;DHT22;6514;48.606;9.222;2024-03-17T12:59:40;16.40;99.90
12893;DHT22;6514;48.606;9.222;2024-03-17T13:02:24;16.40;99.90
12893;DHT22;6514;48.606;9.222;2024-03-17T13:05:16;16.30;99.90
12893;DHT22;6514;48.606;9.222;2024-03-17T13:07:44;16.20;99.90
12893;DHT22;6514;48.606;9.222;2024-03-17T13:10:13;16.30;99.90
12893;DHT22;6514;48.606;9.222;2024-03-17T13:12:40;16.50;99.90
12893;DHT22;6514;48.606;9.222;2024-03-17T13:15:09;16.70;99.90
12893;DHT22;6514;48.606;9.222;2024-03-17T13:17:36;17.00;99.90
12893;DHT22;6514;48.606;9.222;2024-03-17T13:20:04;17.10;99.90
12893;DHT22;6514;48.606;9.222;2024-03-17T13:22:34;17.10;99.90
12893;DHT22;6514;48.606;9.222;2024-03-17T13:25:01;17.20;99.90
12893;DHT22;6514;48.606;9.222;2024-03-17T13:27:28;17.30;99.90
12893;DHT22;6514;48.606;9.222;2024-03-17T13:29:55;17.30;99.90
12893;DHT22;6514;48.606;9.222;2024-03-17T13:32:24;17.40;99.90
12893;DHT22;6514;48.606;9.222;2024-03-17T13:34:50;17.40;99.90
12893;DHT22;6514;48.606;9.222;2024-03-17T13:37:17;17.40;99.90
12893;DHT22;6514;48.606;9.222;2024-03-17T13:39:44;17.40;99.90
12893;DHT22;6514;48.606;9.222;2024-03-17T13:42:12;17.40;99.90
12893;DHT22;6514;48.606;9.222;2024-03-17T13:44:39;17.30;99.90
12893;DHT22;6514;48.606;9.222;2024-03-17T13:47:07;17.10;99.90
12893;DHT22;6514;48.606;9.222;2024-03-17T13:49:35;17.00;99.90
12893;DHT22;6514;48.606;9.222;2024-03-17T13:52:03;16.90;99.90
12893;DHT22;6514;48.606;9.222;2024-03-17T13:54:30;16.80;99.90
12893;DHT22;6514;48.606;9.222;2024-03-17T13:56:57;16.80;99.90
12893;DHT22;6514;48.606;9.222;2024-03-17T13:59:26;16.90;99.90
12893;DHT22;6514;48.606;9.222;2024-03-17T14:01:53;17.10;99.90
12893;DHT22;6514;48.606;9.222;2024-03-17T14:04:21;17.20;99.90
12893;DHT22;6514;48.606;9.222;2024-03-17T14:06:49;17.50;99.90
12893;DHT22;6514;48.606;9.222;2024-03-17T14:09:17;17.70;99.90
12893;DHT22;6514;48.606;9.222;2024-03-17T14:11:44;17.80;99.90
12893;DHT22;6514;48.606;9.222;2024-03-17T14:14:11;18.10;99.90
12893;DHT22;6514;48.606;9.222;2024-03-17T14:16:38;18.10;99.90
12893;DHT22;6514;48.606;9.222;2024-03-17T14:19:06;18.30;99.90
12893;DHT22;6514;48.606;9.222;2024-03-17T14:21:33;18.40;99.90
12893;DHT22;6514;48.606;9.222;2024-03-17T14:24:01;18.40;99.90
12893;DHT22;6514;48.606;9.222;2024-03-17T14:26:32;18.50;99.90
12893;DHT22;6514;48.606;9.222;2024-03-17T14:28:58;18.50;99.90
12893;DHT22;6514;48.606;9.222;2024-03-17T14:31:29;18.30;99.90
12893;DHT22;6514;48.606;9.222;2024-03-17T14:33:56;18.10;99.90
12893;DHT22;6514;48.606;9.222;2024-03-17T14:36:23;17.90;99.90
12893;DHT22;6514;48.606;9.222;2024-03-17T14:38:52;17.70;99.90
12893;DHT22;6514;48.606;9.222;2024-03-17T14:41:20;17.70;99.90
12893;DHT22;6514;48.606;9.222;2024-03-17T14:43:47;17.60;99.90
12893;DHT22;6514;48.606;9.222;2024-03-17T14:46:14;17.80;99.90
12893;DHT22;6514;48.606;9.222;2024-03-17T14:48:42;18.10;99.90
12893;DHT22;6514;48.606;9.222;2024-03-17T14:51:09;18.50;99.90
12893;DHT22;6514;48.606;9.222;2024-03-17T14:53:37;18.90;99.90
12893;DHT22;6514;48.606;9.222;2024-03-17T14:56:08;19.10;99.90
12893;DHT22;6514;48.606;9.222;2024-03-17T14:58:36;19.10;99.90
12893;DHT22;6514;48.606;9.222;2024-03-17T15:01:03;19.00;99.90
12893;DHT22;6514;48.606;9.222;2024-03-17T15:03:30;18.80;99.90
12893;DHT22;6514;48.606;9.222;2024-03-17T15:05:56;18.40;99.90
12893;DHT22;6514;48.606;9.222;2024-03-17T15:08:24;18.10;99.90
12893;DHT22;6514;48.606;9.222;2024-03-17T15:10:49;17.80;99.90
12893;DHT22;6514;48.606;9.222;2024-03-17T15:13:16;17.60;99.90
12893;DHT22;6514;48.606;9.222;2024-03-17T15:15:45;17.40;99.90
12893;DHT22;6514;48.606;9.222;2024-03-17T15:18:13;17.20;99.90
12893;DHT22;6514;48.606;9.222;2024-03-17T15:20:39;16.90;99.90
12893;DHT22;6514;48.606;9.222;2024-03-17T15:23:07;16.80;99.90
12893;DHT22;6514;48.606;9.222;2024-03-17T15:25:34;16.70;99.90
12893;DHT22;6514;48.606;9.222;2024-03-17T15:28:01;16.60;99.90
12893;DHT22;6514;48.606;9.222;2024-03-17T15:30:28;16.40;99.90
12893;DHT22;6514;48.606;9.222;2024-03-17T15:32:57;16.20;99.90
12893;DHT22;6514;48.606;9.222;2024-03-17T15:35:24;16.00;99.90
12893;DHT22;6514;48.606;9.222;2024-03-17T15:37:55;15.80;99.90
12893;DHT22;6514;48.606;9.222;2024-03-17T15:40:22;15.70;99.90
12893;DHT22;6514;48.606;9.222;2024-03-17T15:42:50;15.60;99.90
12893;DHT22;6514;48.606;9.222;2024-03-17T15:45:17;15.40;99.90
12893;DHT22;6514;48.606;9.222;2024-03-17T15:47:45;15.30;99.90
12893;DHT22;6514;48.606;9.222;2024-03-17T15:50:14;15.10;99.90
12893;DHT22;6514;48.606;9.222;2024-03-17T15:52:41;15.00;99.90
12893;DHT22;6514;48.606;9.222;2024-03-17T15:55:10;14.80;99.90
12893;DHT22;6514;48.606;9.222;2024-03-17T15:57:37;14.60;99.90
12893;DHT22;6514;48.606;9.222;2024-03-17T16:00:05;14.50;99.90
12893;DHT22;6514;48.606;9.222;2024-03-17T16:02:34;14.50;99.90